sensor_id;sensor_type;location;lat;lon;timestamp;pressure;altitude;pressure_sealevel;temperature;humidity
61474;BME280;53694;49.784;30.150;2022-08-01T00:00:10;99117.92;;;20.78;54.16
61474;BME280;53694;49.784;30.150;2022-08-01T00:01:13;99107.95;;;20.77;54.33
61474;BME280;53694;49.784;30.150;2022-08-01T00:02:15;99104.84;;;20.75;54.43
61474;BME280;53694;49.784;30.150;2022-08-01T00:03:17;99108.87;;;20.74;54.61
61474;BME280;53694;49.784;30.150;2022-08-01T00:04:19;99108.87;;;20.74;54.43
61474;BME280;53694;49.784;30.150;2022-08-01T00:05:20;99101.73;;;20.73;54.71
61474;BME280;53694;49.784;30.150;2022-08-01T00:06:22;99101.73;;;20.73;54.71
61474;BME280;53694;49.784;30.150;2022-08-01T00:07:24;99114.45;;;20.74;54.46
61474;BME280;53694;49.784;30.150;2022-08-01T00:08:26;99106.08;;;20.74;54.48
61474;BME280;53694;49.784;30.150;2022-08-01T00:09:27;99107.31;;;20.73;54.69
61474;BME280;53694;49.784;30.150;2022-08-01T00:10:31;99111.66;;;20.74;54.78
61474;BME280;53694;49.784;30.150;2022-08-01T00:11:33;99114.45;;;20.74;54.67
61474;BME280;53694;49.784;30.150;2022-08-01T00:12:35;99112.44;;;20.75;54.64
61474;BME280;53694;49.784;30.150;2022-08-01T00:13:36;99114.45;;;20.74;54.59
61474;BME280;53694;49.784;30.150;2022-08-01T00:14:38;99110.88;;;20.74;54.73
61474;BME280;53694;49.784;30.150;2022-08-01T00:15:40;99108.87;;;20.74;54.86
61474;BME280;53694;49.784;30.150;2022-08-01T00:16:42;99104.84;;;20.75;54.76
61474;BME280;53694;49.784;30.150;2022-08-01T00:17:44;99106.86;;;20.75;54.78
61474;BME280;53694;49.784;30.150;2022-08-01T00:18:45;99113.22;;;20.75;54.74
61474;BME280;53694;49.784;30.150;2022-08-01T00:19:47;99108.09;;;20.74;54.87
61474;BME280;53694;49.784;30.150;2022-08-01T00:20:58;99112.08;;;20.72;54.97
61474;BME280;53694;49.784;30.150;2022-08-01T00:22:00;99109.75;;;20.71;54.99
61474;BME280;53694;49.784;30.150;2022-08-01T00:23:02;99109.42;;;20.69;55.12
61474;BME280;53694;49.784;30.150;2022-08-01T00:24:05;99104.27;;;20.67;55.19
61474;BME280;53694;49.784;30.150;2022-08-01T00:25:07;99115.88;;;20.66;55.21
61474;BME280;53694;49.784;30.150;2022-08-01T00:26:10;99110.72;;;20.64;55.28
61474;BME280;53694;49.784;30.150;2022-08-01T00:27:12;99109.16;;;20.63;55.30
61474;BME280;53694;49.784;30.150;2022-08-01T00:28:13;99118.77;;;20.62;55.38
61474;BME280;53694;49.784;30.150;2022-08-01T00:29:15;99109.26;;;20.60;55.50
61474;BME280;53694;49.784;30.150;2022-08-01T00:30:17;99108.48;;;20.59;55.50
61474;BME280;53694;49.784;30.150;2022-08-01T00:31:19;99106.14;;;20.58;55.67
61474;BME280;53694;49.784;30.150;2022-08-01T00:32:20;99108.58;;;20.56;55.70
61474;BME280;53694;49.784;30.150;2022-08-01T00:33:22;99107.02;;;20.55;55.74
61474;BME280;53694;49.784;30.150;2022-08-01T00:34:24;99106.69;;;20.53;55.83
61474;BME280;53694;49.784;30.150;2022-08-01T00:35:25;99109.48;;;20.53;55.88
61474;BME280;53694;49.784;30.150;2022-08-01T00:36:27;99110.68;;;20.52;56.04
61474;BME280;53694;49.784;30.150;2022-08-01T00:37:29;99106.33;;;20.51;55.97
61474;BME280;53694;49.784;30.150;2022-08-01T00:38:31;99115.94;;;20.50;55.97
61474;BME280;53694;49.784;30.150;2022-08-01T00:39:32;99110.00;;;20.47;56.06
61474;BME280;53694;49.784;30.150;2022-08-01T00:40:34;99109.64;;;20.45;56.12
61474;BME280;53694;49.784;30.150;2022-08-01T00:41:36;99111.30;;;20.43;56.23
61474;BME280;53694;49.784;30.150;2022-08-01T00:42:37;99108.95;;;20.41;56.35
61474;BME280;53694;49.784;30.150;2022-08-01T00:43:39;99107.81;;;20.39;56.40
61474;BME280;53694;49.784;30.150;2022-08-01T00:44:41;99109.05;;;20.38;56.47
61474;BME280;53694;49.784;30.150;2022-08-01T00:45:43;99110.73;;;20.35;56.54
61474;BME280;53694;49.784;30.150;2022-08-01T00:46:44;99103.56;;;20.34;56.58
61474;BME280;53694;49.784;30.150;2022-08-01T00:47:46;99102.88;;;20.30;56.39
61474;BME280;53694;49.784;30.150;2022-08-01T00:48:47;99102.88;;;20.30;56.39
61474;BME280;53694;49.784;30.150;2022-08-01T00:49:49;99101.32;;;20.29;56.77
61474;BME280;53694;49.784;30.150;2022-08-01T00:50:51;99091.04;;;20.26;56.95
61474;BME280;53694;49.784;30.150;2022-08-01T00:51:52;99097.52;;;20.23;57.13
61474;BME280;53694;49.784;30.150;2022-08-01T00:52:55;99097.52;;;20.23;57.13
61474;BME280;53694;49.784;30.150;2022-08-01T00:53:56;99091.94;;;20.23;57.01
61474;BME280;53694;49.784;30.150;2022-08-01T00:54:58;99095.59;;;20.20;57.05
61474;BME280;53694;49.784;30.150;2022-08-01T00:56:01;99088.89;;;20.17;57.19
61474;BME280;53694;49.784;30.150;2022-08-01T00:57:03;99089.78;;;20.14;57.29
61474;BME280;53694;49.784;30.150;2022-08-01T00:58:05;99089.88;;;20.11;57.46
61474;BME280;53694;49.784;30.150;2022-08-01T00:59:08;99080.38;;;20.08;57.43
61474;BME280;53694;49.784;30.150;2022-08-01T01:00:11;99086.84;;;20.05;57.39
61474;BME280;53694;49.784;30.150;2022-08-01T01:01:15;99086.04;;;20.05;57.57
61474;BME280;53694;49.784;30.150;2022-08-01T01:02:17;99084.48;;;20.04;57.64
61474;BME280;53694;49.784;30.150;2022-08-01T01:03:18;99081.37;;;20.02;57.75
61474;BME280;53694;49.784;30.150;2022-08-01T01:04:20;99085.34;;;20.01;57.80
61474;BME280;53694;49.784;30.150;2022-08-01T01:05:22;99081.00;;;20.00;57.81
61474;BME280;53694;49.784;30.150;2022-08-01T01:06:41;99090.14;;;20.00;57.88
61474;BME280;53694;49.784;30.150;2022-08-01T01:07:50;99087.81;;;19.98;57.97
61474;BME280;53694;49.784;30.150;2022-08-01T01:10:20;99087.11;;;19.94;58.08
61474;BME280;53694;49.784;30.150;2022-08-01T01:11:28;99083.19;;;19.92;58.10
61474;BME280;53694;49.784;30.150;2022-08-01T01:14:00;99085.73;;;19.86;58.38
61474;BME280;53694;49.784;30.150;2022-08-01T01:15:15;99073.89;;;19.82;58.48
61474;BME280;53694;49.784;30.150;2022-08-01T01:16:22;99081.92;;;19.80;58.55
61474;BME280;53694;49.784;30.150;2022-08-01T01:17:32;99081.23;;;19.76;58.51
61474;BME280;53694;49.784;30.150;2022-08-01T01:18:46;99069.56;;;19.65;58.59
61474;BME280;53694;49.784;30.150;2022-08-01T01:19:51;99079.39;;;19.69;58.69
61474;BME280;53694;49.784;30.150;2022-08-01T01:22:18;99083.16;;;19.63;58.93
61474;BME280;53694;49.784;30.150;2022-08-01T01:23:39;99083.99;;;19.60;58.96
61474;BME280;53694;49.784;30.150;2022-08-01T01:25:17;99082.06;;;19.57;59.12
61474;BME280;53694;49.784;30.150;2022-08-01T01:27:34;99083.45;;;19.48;59.50
61474;BME280;53694;49.784;30.150;2022-08-01T01:30:08;99081.73;;;19.38;59.62
61474;BME280;53694;49.784;30.150;2022-08-01T01:31:12;99084.25;;;19.33;59.76
61474;BME280;53694;49.784;30.150;2022-08-01T01:32:44;99087.12;;;19.29;59.87
61474;BME280;53694;49.784;30.150;2022-08-01T01:33:48;99079.63;;;19.26;60.04
61474;BME280;53694;49.784;30.150;2022-08-01T01:34:52;99074.91;;;19.23;60.21
61474;BME280;53694;49.784;30.150;2022-08-01T01:35:58;99076.92;;;19.22;60.31
61474;BME280;53694;49.784;30.150;2022-08-01T01:37:04;99078.59;;;19.20;60.35
61474;BME280;53694;49.784;30.150;2022-08-01T01:38:18;99078.22;;;19.18;60.40
61474;BME280;53694;49.784;30.150;2022-08-01T01:39:20;99079.44;;;19.17;60.46
61474;BME280;53694;49.784;30.150;2022-08-01T01:40:24;99071.62;;;19.12;60.46
61474;BME280;53694;49.784;30.150;2022-08-01T01:41:27;99082.83;;;19.08;60.69
61474;BME280;53694;49.784;30.150;2022-08-01T01:42:30;99078.89;;;19.06;60.85
61474;BME280;53694;49.784;30.150;2022-08-01T01:43:35;99078.19;;;19.02;61.02
61474;BME280;53694;49.784;30.150;2022-08-01T01:44:38;99087.83;;;18.97;61.17
61474;BME280;53694;49.784;30.150;2022-08-01T01:45:40;99086.69;;;18.94;61.38
61474;BME280;53694;49.784;30.150;2022-08-01T01:46:43;99080.08;;;18.88;61.46
61474;BME280;53694;49.784;30.150;2022-08-01T01:47:46;99084.49;;;18.86;61.56
61474;BME280;53694;49.784;30.150;2022-08-01T01:48:49;99081.81;;;18.82;61.73
61474;BME280;53694;49.784;30.150;2022-08-01T01:49:52;99077.44;;;18.81;61.79
61474;BME280;53694;49.784;30.150;2022-08-01T01:50:56;99089.79;;;18.80;61.93
61474;BME280;53694;49.784;30.150;2022-08-01T01:52:00;99085.78;;;18.81;62.03
61474;BME280;53694;49.784;30.150;2022-08-01T01:53:04;99086.67;;;18.78;61.92
61474;BME280;53694;49.784;30.150;2022-08-01T01:54:08;99084.73;;;18.75;62.01
61474;BME280;53694;49.784;30.150;2022-08-01T01:55:11;99088.37;;;18.72;62.36
61474;BME280;53694;49.784;30.150;2022-08-01T01:56:17;99084.47;;;18.69;62.62
61474;BME280;53694;49.784;30.150;2022-08-01T01:57:21;99086.84;;;18.67;62.87
61474;BME280;53694;49.784;30.150;2022-08-01T01:58:24;99083.73;;;18.65;63.10
61474;BME280;53694;49.784;30.150;2022-08-01T01:59:30;99086.92;;;18.64;63.12
61474;BME280;53694;49.784;30.150;2022-08-01T02:00:34;99083.80;;;18.62;63.09
61474;BME280;53694;49.784;30.150;2022-08-01T02:01:36;99080.64;;;18.60;62.96
61474;BME280;53694;49.784;30.150;2022-08-01T02:02:38;99082.30;;;18.57;63.17
61474;BME280;53694;49.784;30.150;2022-08-01T02:03:42;99076.81;;;18.54;63.22
61474;BME280;53694;49.784;30.150;2022-08-01T02:04:46;99078.81;;;18.53;63.22
61474;BME280;53694;49.784;30.150;2022-08-01T02:05:51;99079.66;;;18.50;63.29
61474;BME280;53694;49.784;30.150;2022-08-01T02:06:55;99080.09;;;18.48;63.43
61474;BME280;53694;49.784;30.150;2022-08-01T02:07:57;99080.95;;;18.45;63.42
61474;BME280;53694;49.784;30.150;2022-08-01T02:09:01;99079.38;;;18.44;63.55
61474;BME280;53694;49.784;30.150;2022-08-01T02:10:04;99082.16;;;18.44;63.62
61474;BME280;53694;49.784;30.150;2022-08-01T02:11:07;99088.13;;;18.43;63.60
61474;BME280;53694;49.784;30.150;2022-08-01T02:12:10;99084.23;;;18.40;63.68
61474;BME280;53694;49.784;30.150;2022-08-01T02:13:14;99086.64;;;18.38;63.72
61474;BME280;53694;49.784;30.150;2022-08-01T02:14:19;99085.52;;;18.36;63.98
61474;BME280;53694;49.784;30.150;2022-08-01T02:15:23;99088.36;;;18.32;64.51
61474;BME280;53694;49.784;30.150;2022-08-01T02:16:35;99086.42;;;18.29;64.91
61474;BME280;53694;49.784;30.150;2022-08-01T02:17:42;99080.52;;;18.27;65.25
61474;BME280;53694;49.784;30.150;2022-08-01T02:18:42;99088.48;;;18.25;65.35
61474;BME280;53694;49.784;30.150;2022-08-01T02:19:44;99087.70;;;18.24;65.49
61474;BME280;53694;49.784;30.150;2022-08-01T02:20:48;99090.48;;;18.24;65.53
61474;BME280;53694;49.784;30.150;2022-08-01T02:21:54;99085.77;;;18.21;65.46
61474;BME280;53694;49.784;30.150;2022-08-01T02:23:00;99088.61;;;18.18;65.67
61474;BME280;53694;49.784;30.150;2022-08-01T02:24:07;99081.15;;;18.15;65.81
61474;BME280;53694;49.784;30.150;2022-08-01T02:25:15;99086.33;;;18.13;65.91
61474;BME280;53694;49.784;30.150;2022-08-01T02:26:17;99081.64;;;18.10;66.05
61474;BME280;53694;49.784;30.150;2022-08-01T02:27:24;99079.27;;;18.08;66.20
61474;BME280;53694;49.784;30.150;2022-08-01T02:28:34;99079.71;;;18.07;66.16
61474;BME280;53694;49.784;30.150;2022-08-01T02:29:49;99078.15;;;18.06;66.25
61474;BME280;53694;49.784;30.150;2022-08-01T02:30:50;99083.33;;;18.04;66.44
61474;BME280;53694;49.784;30.150;2022-08-01T02:31:54;99081.39;;;18.01;66.59
61474;BME280;53694;49.784;30.150;2022-08-01T02:33:05;99086.60;;;17.98;66.81
61474;BME280;53694;49.784;30.150;2022-08-01T02:34:07;99083.45;;;17.96;66.93
61474;BME280;53694;49.784;30.150;2022-08-01T02:35:12;99087.09;;;17.93;67.00
61474;BME280;53694;49.784;30.150;2022-08-01T02:36:16;99083.16;;;17.91;67.18
61474;BME280;53694;49.784;30.150;2022-08-01T02:37:20;99086.00;;;17.87;67.37
61474;BME280;53694;49.784;30.150;2022-08-01T02:38:24;99081.31;;;17.84;67.53
61474;BME280;53694;49.784;30.150;2022-08-01T02:39:28;99082.55;;;17.80;67.72
61474;BME280;53694;49.784;30.150;2022-08-01T02:40:33;99081.86;;;17.76;67.83
61474;BME280;53694;49.784;30.150;2022-08-01T02:41:39;99081.45;;;17.73;67.79
61474;BME280;53694;49.784;30.150;2022-08-01T02:42:44;99081.45;;;17.73;67.79
61474;BME280;53694;49.784;30.150;2022-08-01T02:43:49;99080.67;;;17.73;68.17
61474;BME280;53694;49.784;30.150;2022-08-01T02:44:52;99074.74;;;17.71;68.25
61474;BME280;53694;49.784;30.150;2022-08-01T02:45:57;99083.88;;;17.71;68.38
61474;BME280;53694;49.784;30.150;2022-08-01T02:47:01;99071.19;;;17.70;68.46
61474;BME280;53694;49.784;30.150;2022-08-01T02:48:14;99074.02;;;17.67;68.62
61474;BME280;53694;49.784;30.150;2022-08-01T02:49:17;99072.45;;;17.66;68.81
61474;BME280;53694;49.784;30.150;2022-08-01T02:50:23;99080.06;;;17.62;68.90
61474;BME280;53694;49.784;30.150;2022-08-01T02:51:28;99077.77;;;17.57;69.00
61474;BME280;53694;49.784;30.150;2022-08-01T02:52:32;99073.43;;;17.56;69.17
61474;BME280;53694;49.784;30.150;2022-08-01T02:53:36;99081.76;;;17.56;69.21
61474;BME280;53694;49.784;30.150;2022-08-01T02:54:40;99079.47;;;17.51;69.32
61474;BME280;53694;49.784;30.150;2022-08-01T02:55:43;99076.31;;;17.48;69.49
61474;BME280;53694;49.784;30.150;2022-08-01T02:56:47;99075.19;;;17.46;69.72
61474;BME280;53694;49.784;30.150;2022-08-01T02:57:50;99086.69;;;17.44;69.91
61474;BME280;53694;49.784;30.150;2022-08-01T02:58:53;99087.47;;;17.45;70.03
61474;BME280;53694;49.784;30.150;2022-08-01T02:59:57;99086.69;;;17.44;70.17
61474;BME280;53694;49.784;30.150;2022-08-01T03:01:01;99089.06;;;17.46;70.58
61474;BME280;53694;49.784;30.150;2022-08-01T03:02:04;99087.66;;;17.58;70.50
61474;BME280;53694;49.784;30.150;2022-08-01T03:03:07;99081.66;;;17.86;70.09
61474;BME280;53694;49.784;30.150;2022-08-01T03:04:10;99095.61;;;18.26;69.00
61474;BME280;53694;49.784;30.150;2022-08-01T03:05:12;99084.80;;;18.71;67.73
61474;BME280;53694;49.784;30.150;2022-08-01T03:06:17;99084.94;;;19.20;65.94
61474;BME280;53694;49.784;30.150;2022-08-01T03:07:20;99089.56;;;19.60;64.66
61474;BME280;53694;49.784;30.150;2022-08-01T03:08:23;99083.56;;;19.78;63.54
61474;BME280;53694;49.784;30.150;2022-08-01T03:09:26;99081.03;;;19.83;63.16
61474;BME280;53694;49.784;30.150;2022-08-01T03:10:31;99082.01;;;19.77;62.88
61474;BME280;53694;49.784;30.150;2022-08-01T03:11:34;99083.94;;;19.63;63.05
61474;BME280;53694;49.784;30.150;2022-08-01T03:12:39;99082.77;;;19.44;63.50
61474;BME280;53694;49.784;30.150;2022-08-01T03:13:42;99083.63;;;19.25;64.10
61474;BME280;53694;49.784;30.150;2022-08-01T03:14:47;99086.80;;;19.07;64.70
61474;BME280;53694;49.784;30.150;2022-08-01T03:15:52;99087.91;;;18.93;65.29
61474;BME280;53694;49.784;30.150;2022-08-01T03:16:57;99085.78;;;18.81;65.64
61474;BME280;53694;49.784;30.150;2022-08-01T03:17:59;99087.25;;;18.69;65.96
61474;BME280;53694;49.784;30.150;2022-08-01T03:19:03;99087.42;;;18.59;66.42
61474;BME280;53694;49.784;30.150;2022-08-01T03:20:08;99082.51;;;18.46;66.72
61474;BME280;53694;49.784;30.150;2022-08-01T03:21:12;99090.63;;;18.37;67.12
61474;BME280;53694;49.784;30.150;2022-08-01T03:22:15;99085.20;;;18.30;67.53
61474;BME280;53694;49.784;30.150;2022-08-01T03:23:18;99096.42;;;18.27;67.81
61474;BME280;53694;49.784;30.150;2022-08-01T03:24:23;99090.92;;;18.23;68.09
61474;BME280;53694;49.784;30.150;2022-08-01T03:25:27;99090.20;;;18.19;68.17
61474;BME280;53694;49.784;30.150;2022-08-01T03:26:34;99090.70;;;18.14;68.28
61474;BME280;53694;49.784;30.150;2022-08-01T03:27:36;99087.55;;;18.12;68.52
61474;BME280;53694;49.784;30.150;2022-08-01T03:28:39;99087.61;;;18.08;68.69
61474;BME280;53694;49.784;30.150;2022-08-01T03:29:42;99085.27;;;18.07;68.83
61474;BME280;53694;49.784;30.150;2022-08-01T03:30:47;99088.05;;;18.07;69.03
61474;BME280;53694;49.784;30.150;2022-08-01T03:31:49;99089.27;;;18.06;69.12
61474;BME280;53694;49.784;30.150;2022-08-01T03:32:51;99079.34;;;18.05;69.20
61474;BME280;53694;49.784;30.150;2022-08-01T03:33:53;99088.89;;;18.04;69.29
61474;BME280;53694;49.784;30.150;2022-08-01T03:34:55;99084.89;;;18.05;69.45
61474;BME280;53694;49.784;30.150;2022-08-01T03:35:58;99090.83;;;18.07;69.40
61474;BME280;53694;49.784;30.150;2022-08-01T03:37:14;99088.77;;;18.11;69.45
61474;BME280;53694;49.784;30.150;2022-08-01T03:38:18;99085.55;;;18.12;69.34
61474;BME280;53694;49.784;30.150;2022-08-01T03:39:22;99088.70;;;18.14;69.24
61474;BME280;53694;49.784;30.150;2022-08-01T03:40:40;99092.27;;;18.15;69.16
61474;BME280;53694;49.784;30.150;2022-08-01T03:41:53;99089.89;;;18.13;69.25
61474;BME280;53694;49.784;30.150;2022-08-01T03:42:52;99094.27;;;18.14;69.16
61474;BME280;53694;49.784;30.150;2022-08-01T03:44:03;99093.48;;;18.14;69.15
61474;BME280;53694;49.784;30.150;2022-08-01T03:45:08;99087.11;;;18.13;69.21
61474;BME280;53694;49.784;30.150;2022-08-01T03:46:17;99087.11;;;18.13;69.34
61474;BME280;53694;49.784;30.150;2022-08-01T03:47:17;99097.38;;;18.16;69.54
61474;BME280;53694;49.784;30.150;2022-08-01T03:48:22;99089.42;;;18.18;69.48
61474;BME280;53694;49.784;30.150;2022-08-01T03:49:29;99084.64;;;18.19;69.36
61474;BME280;53694;49.784;30.150;2022-08-01T03:50:33;99084.64;;;18.19;69.36
61474;BME280;53694;49.784;30.150;2022-08-01T03:51:37;99086.20;;;18.20;69.43
61474;BME280;53694;49.784;30.150;2022-08-01T03:52:41;99080.65;;;18.20;69.56
61474;BME280;53694;49.784;30.150;2022-08-01T03:53:45;99082.20;;;18.21;69.50
61474;BME280;53694;49.784;30.150;2022-08-01T03:54:49;99077.02;;;18.23;69.45
61474;BME280;53694;49.784;30.150;2022-08-01T03:55:54;99082.15;;;18.24;69.46
61474;BME280;53694;49.784;30.150;2022-08-01T03:56:57;99078.93;;;18.26;69.60
61474;BME280;53694;49.784;30.150;2022-08-01T03:58:00;99085.30;;;18.27;69.58
61474;BME280;53694;49.784;30.150;2022-08-01T03:59:04;99074.97;;;18.27;69.54
61474;BME280;53694;49.784;30.150;2022-08-01T04:00:07;99086.42;;;18.29;69.49
61474;BME280;53694;49.784;30.150;2022-08-01T04:01:09;99083.64;;;18.29;69.45
61474;BME280;53694;49.784;30.150;2022-08-01T04:02:12;99086.80;;;18.31;69.38
61474;BME280;53694;49.784;30.150;2022-08-01T04:03:16;99088.36;;;18.32;69.36
61474;BME280;53694;49.784;30.150;2022-08-01T04:04:18;99085.92;;;18.34;69.44
61474;BME280;53694;49.784;30.150;2022-08-01T04:05:20;99092.27;;;18.35;69.32
61474;BME280;53694;49.784;30.150;2022-08-01T04:06:23;99085.92;;;18.34;69.28
61474;BME280;53694;49.784;30.150;2022-08-01T04:07:30;99087.08;;;18.37;69.36
61474;BME280;53694;49.784;30.150;2022-08-01T04:08:37;99090.63;;;18.37;69.38
61474;BME280;53694;49.784;30.150;2022-08-01T04:09:39;99092.98;;;18.39;69.46
61474;BME280;53694;49.784;30.150;2022-08-01T04:10:41;99083.45;;;18.40;69.54
61474;BME280;53694;49.784;30.150;2022-08-01T04:11:42;99082.23;;;18.41;69.65
61474;BME280;53694;49.784;30.150;2022-08-01T04:12:44;99084.23;;;18.40;69.66
61474;BME280;53694;49.784;30.150;2022-08-01T04:13:46;99084.57;;;18.42;69.74
61474;BME280;53694;49.784;30.150;2022-08-01T04:14:48;99086.13;;;18.43;69.83
61474;BME280;53694;49.784;30.150;2022-08-01T04:15:50;99078.16;;;18.45;69.70
61474;BME280;53694;49.784;30.150;2022-08-01T04:16:52;99076.95;;;18.46;69.63
61474;BME280;53694;49.784;30.150;2022-08-01T04:17:53;99082.88;;;18.48;69.49
61474;BME280;53694;49.784;30.150;2022-08-01T04:18:55;99077.66;;;18.51;69.41
61474;BME280;53694;49.784;30.150;2022-08-01T04:19:57;99076.81;;;18.54;69.43
61474;BME280;53694;49.784;30.150;2022-08-01T04:20:59;99080.30;;;18.58;68.98
61474;BME280;53694;49.784;30.150;2022-08-01T04:22:01;99081.42;;;18.60;68.61
61474;BME280;53694;49.784;30.150;2022-08-01T04:23:03;99083.36;;;18.63;68.32
61474;BME280;53694;49.784;30.150;2022-08-01T04:24:10;99084.47;;;18.69;69.10
61474;BME280;53694;49.784;30.150;2022-08-01T04:25:16;99069.61;;;18.76;68.42
61474;BME280;53694;49.784;30.150;2022-08-01T04:26:21;99080.59;;;18.83;68.12
61474;BME280;53694;49.784;30.150;2022-08-01T04:27:32;99076.44;;;18.91;67.84
61474;BME280;53694;49.784;30.150;2022-08-01T04:28:36;99078.70;;;18.96;67.44
61474;BME280;53694;49.784;30.150;2022-08-01T04:29:39;99077.41;;;19.01;67.12
61474;BME280;53694;49.784;30.150;2022-08-01T04:30:44;99074.55;;;19.05;66.73
61474;BME280;53694;49.784;30.150;2022-08-01T04:31:48;99078.45;;;19.07;66.65
61474;BME280;53694;49.784;30.150;2022-08-01T04:32:51;99078.04;;;19.09;66.75
61474;BME280;53694;49.784;30.150;2022-08-01T04:33:54;99079.59;;;19.10;66.69
61474;BME280;53694;49.784;30.150;2022-08-01T04:34:58;99079.97;;;19.12;66.67
61474;BME280;53694;49.784;30.150;2022-08-01T04:36:01;99077.52;;;19.14;66.59
61474;BME280;53694;49.784;30.150;2022-08-01T04:37:04;99072.32;;;19.16;66.47
61474;BME280;53694;49.784;30.150;2022-08-01T04:38:07;99074.22;;;19.19;66.54
61474;BME280;53694;49.784;30.150;2022-08-01T04:39:10;99081.70;;;19.22;66.22
61474;BME280;53694;49.784;30.150;2022-08-01T04:40:14;99075.28;;;19.25;66.07
61474;BME280;53694;49.784;30.150;2022-08-01T04:41:16;99075.98;;;19.29;65.49
61474;BME280;53694;49.784;30.150;2022-08-01T04:42:19;99075.46;;;19.34;65.47
61474;BME280;53694;49.784;30.150;2022-08-01T04:43:21;99070.14;;;19.40;65.42
61474;BME280;53694;49.784;30.150;2022-08-01T04:44:24;99070.42;;;19.45;65.23
61474;BME280;53694;49.784;30.150;2022-08-01T04:45:26;99067.89;;;19.51;64.98
61474;BME280;53694;49.784;30.150;2022-08-01T04:46:31;99070.52;;;19.58;64.51
61474;BME280;53694;49.784;30.150;2022-08-01T04:47:35;99075.58;;;19.63;64.01
61474;BME280;53694;49.784;30.150;2022-08-01T04:48:38;99076.61;;;19.69;63.69
61474;BME280;53694;49.784;30.150;2022-08-01T04:49:41;99071.73;;;19.73;63.16
61474;BME280;53694;49.784;30.150;2022-08-01T04:50:44;99070.09;;;19.76;62.82
61474;BME280;53694;49.784;30.150;2022-08-01T04:51:50;99072.42;;;19.78;62.98
61474;BME280;53694;49.784;30.150;2022-08-01T04:52:52;99069.55;;;19.81;62.66
61474;BME280;53694;49.784;30.150;2022-08-01T04:53:54;99077.46;;;19.83;62.33
61474;BME280;53694;49.784;30.150;2022-08-01T04:54:55;99076.92;;;19.88;62.13
61474;BME280;53694;49.784;30.150;2022-08-01T04:55:57;99069.70;;;19.90;61.86
61474;BME280;53694;49.784;30.150;2022-08-01T04:57:00;99070.39;;;19.94;61.59
61474;BME280;53694;49.784;30.150;2022-08-01T04:58:02;99069.17;;;19.95;61.52
61474;BME280;53694;49.784;30.150;2022-08-01T04:59:04;99077.11;;;19.97;61.29
61474;BME280;53694;49.784;30.150;2022-08-01T05:00:07;99069.86;;;20.00;61.35
61474;BME280;53694;49.784;30.150;2022-08-01T05:01:09;99070.22;;;20.02;61.33
61474;BME280;53694;49.784;30.150;2022-08-01T05:03:18;99072.47;;;20.07;60.85
61474;BME280;53694;49.784;30.150;2022-08-01T05:04:19;99074.71;;;20.12;60.52
61474;BME280;53694;49.784;30.150;2022-08-01T05:05:22;99073.84;;;20.15;60.23
61474;BME280;53694;49.784;30.150;2022-08-01T05:06:24;99074.17;;;20.17;60.05
61474;BME280;53694;49.784;30.150;2022-08-01T05:07:26;99067.72;;;20.20;59.73
61474;BME280;53694;49.784;30.150;2022-08-01T05:08:27;99073.98;;;20.24;59.53
61474;BME280;53694;49.784;30.150;2022-08-01T05:09:29;99074.31;;;20.26;59.32
61474;BME280;53694;49.784;30.150;2022-08-01T05:10:32;99071.00;;;20.31;59.09
61474;BME280;53694;49.784;30.150;2022-08-01T05:11:34;99075.68;;;20.34;58.98
61474;BME280;53694;49.784;30.150;2022-08-01T05:12:36;99073.58;;;20.38;58.90
61474;BME280;53694;49.784;30.150;2022-08-01T05:13:37;99075.48;;;20.41;58.67
61474;BME280;53694;49.784;30.150;2022-08-01T05:14:39;99075.39;;;20.45;58.44
61474;BME280;53694;49.784;30.150;2022-08-01T05:15:41;99076.53;;;20.47;58.23
61474;BME280;53694;49.784;30.150;2022-08-01T05:16:44;99070.08;;;20.51;58.19
61474;BME280;53694;49.784;30.150;2022-08-01T05:17:46;99072.77;;;20.54;58.00
61474;BME280;53694;49.784;30.150;2022-08-01T05:18:47;99072.67;;;20.58;58.07
61474;BME280;53694;49.784;30.150;2022-08-01T05:19:49;99065.44;;;20.60;57.87
61474;BME280;53694;49.784;30.150;2022-08-01T05:20:51;99070.88;;;20.64;57.89
61474;BME280;53694;49.784;30.150;2022-08-01T05:21:52;99070.00;;;20.67;57.80
61474;BME280;53694;49.784;30.150;2022-08-01T05:22:54;99075.48;;;20.70;57.63
61474;BME280;53694;49.784;30.150;2022-08-01T05:23:56;99079.05;;;20.71;57.34
61474;BME280;53694;49.784;30.150;2022-08-01T05:24:58;99068.67;;;20.71;57.49
61474;BME280;53694;49.784;30.150;2022-08-01T05:25:59;99073.83;;;20.73;57.81
61474;BME280;53694;49.784;30.150;2022-08-01T05:27:01;99076.16;;;20.75;57.83
61474;BME280;53694;49.784;30.150;2022-08-01T05:28:04;99071.36;;;20.75;57.58
61474;BME280;53694;49.784;30.150;2022-08-01T05:29:05;99074.48;;;20.77;57.50
61474;BME280;53694;49.784;30.150;2022-08-01T05:30:08;99076.06;;;20.78;57.54
61474;BME280;53694;49.784;30.150;2022-08-01T05:31:10;99075.16;;;20.81;57.54
61474;BME280;53694;49.784;30.150;2022-08-01T05:32:12;99080.63;;;20.85;57.36
61474;BME280;53694;49.784;30.150;2022-08-01T05:33:14;99079.43;;;20.86;57.31
61474;BME280;53694;49.784;30.150;2022-08-01T05:34:15;99076.18;;;20.87;56.98
61474;BME280;53694;49.784;30.150;2022-08-01T05:35:17;99080.88;;;20.90;57.04
61474;BME280;53694;49.784;30.150;2022-08-01T05:36:21;99075.62;;;20.92;56.90
61474;BME280;53694;49.784;30.150;2022-08-01T05:37:22;99074.74;;;20.95;56.89
61474;BME280;53694;49.784;30.150;2022-08-01T05:38:24;99069.06;;;20.99;56.70
61474;BME280;53694;49.784;30.150;2022-08-01T05:39:26;99072.95;;;21.02;56.47
61474;BME280;53694;49.784;30.150;2022-08-01T05:40:28;99072.06;;;21.05;56.73
61474;BME280;53694;49.784;30.150;2022-08-01T05:41:30;99073.52;;;21.09;56.49